Startpagina
METAR-TAF:

METAR-TAF

Vliegvelden :

Aeroporto Internacional do Recife

Recife, Pernambuco, Brazilië

breedte: 08-08S, lengte: 034-55W, hoogte: 19 m

Actueel weer

Dit bericht is 1 uur en het 14 minuten geleden gemaakt, om 03:00 UTC
Wind 10 kt uit het oostzuidoosten
Temperatuur 26°C
Vochtigheid 84%
Druk 1014 hPa
Zicht 10 km of meer
Gebroken wolken op 2000 ft

METAR: SBRF 210300Z 12010KT 9999 BKN020 26/23 Q1014

Tijdstip: 01:14 (04:14 UTC)

Verwachting

Dit bericht is 6 uur en het 14 minuten geleden gemaakt, om 22:00 UTC
Verwachting geldig van 21 om 00 UTC tot 21 om 24 UTC
Wind 10 kt uit het oostzuidoosten
Zicht: 8000 m
Gebroken wolken op 2000 ft
Wijzigt naar
van 21 om 09 UTC tot 21 om 11 UTC
Verspreide wolken op 2300 ft

TAF: SBRF 202200Z 2100/2124 12010KT 8000 BKN020 TN25/2108Z TX29/2115Z BECMG 2109/2111 SCT023 RMK PCH

Waarnemingen en weersverwachtingen van meer dan 4000 vliegvelden (METAR en TAF).

De beschikbare stations zijn de gele en rode punten op de kaart.

Ga met uw muis naar het station om de naam te zien.

Klik dan om waarnemingen en weersverwachtingen te zien.

kaart wijzigen: klik op de groene knoppen met een zwart kruis om in te zoomen, op de groene knop met een streepje om uit te zoomen of op de groene pijlen voor aangrenzende kaarten.


METAR-TAF: